createdAt,value
2023-04-30T00:02:19.892Z,10.66
2023-04-30T00:05:06.760Z,10.55
2023-04-30T00:07:52.871Z,10.50
2023-04-30T00:10:39.491Z,10.61
2023-04-30T00:13:25.795Z,10.35
2023-04-30T00:16:12.232Z,10.31
2023-04-30T00:18:58.955Z,10.31
2023-04-30T00:21:45.919Z,10.27
2023-04-30T00:24:32.246Z,10.22
2023-04-30T00:27:18.723Z,10.22
2023-04-30T00:30:05.778Z,10.24
2023-04-30T00:32:51.931Z,10.14
2023-04-30T00:35:38.349Z,10.11
2023-04-30T00:38:25.062Z,9.85
2023-04-30T00:41:11.535Z,10.08
2023-04-30T00:43:57.902Z,9.92
2023-04-30T00:46:44.249Z,10.11
2023-04-30T00:49:30.854Z,10.07
2023-04-30T00:52:17.399Z,10.34
2023-04-30T00:55:04.230Z,10.32
2023-04-30T00:57:51.432Z,10.14
2023-04-30T01:00:38.139Z,10.38
2023-04-30T01:03:24.847Z,10.29
2023-04-30T01:06:11.506Z,10.28
2023-04-30T01:08:58.439Z,10.32
2023-04-30T01:12:26.288Z,10.28
2023-04-30T01:15:32.695Z,10.17
2023-04-30T01:18:31.606Z,10.22
2023-04-30T01:21:20.666Z,10.17
2023-04-30T01:24:29.117Z,10.25
2023-04-30T01:27:23.292Z,10.18
2023-04-30T01:30:11.860Z,10.12
2023-04-30T01:32:58.592Z,10.24
2023-04-30T01:36:16.769Z,10.22
2023-04-30T01:39:13.188Z,10.27
2023-04-30T01:42:13.908Z,10.29
2023-04-30T01:45:37.538Z,10.11
2023-04-30T01:49:01.080Z,10.31
2023-04-30T01:51:50.173Z,10.26
2023-04-30T01:54:43.673Z,10.26
2023-04-30T01:57:35.259Z,10.29
2023-04-30T02:00:22.568Z,10.12
2023-04-30T02:03:09.486Z,10.15
2023-04-30T02:05:56.148Z,10.23
2023-04-30T02:08:42.755Z,10.12
2023-04-30T02:11:29.898Z,10.18
2023-04-30T02:14:16.597Z,10.23
2023-04-30T02:17:03.734Z,10.10
2023-04-30T02:19:50.629Z,10.13
2023-04-30T02:22:37.432Z,10.10
2023-04-30T02:25:23.895Z,9.75
2023-04-30T02:28:10.238Z,10.19
2023-04-30T02:30:56.739Z,10.03
2023-04-30T02:33:43.135Z,10.22
2023-04-30T02:36:29.805Z,10.25
2023-04-30T02:39:16.403Z,10.08
2023-04-30T02:42:03.186Z,9.97
2023-04-30T02:44:49.544Z,10.03
2023-04-30T02:47:36.533Z,9.77
2023-04-30T02:50:23.132Z,10.10
2023-04-30T02:53:09.366Z,9.51
2023-04-30T02:55:55.834Z,9.99
2023-04-30T02:58:42.477Z,9.95
2023-04-30T03:01:28.999Z,9.84
2023-04-30T03:04:15.361Z,9.97
2023-04-30T03:07:01.909Z,9.88
2023-04-30T03:09:48.470Z,9.90
2023-04-30T03:12:34.872Z,9.81
2023-04-30T03:15:21.508Z,9.88
2023-04-30T03:18:08.258Z,9.81
2023-04-30T03:20:55.208Z,9.58
2023-04-30T03:23:41.808Z,9.75
2023-04-30T03:26:28.169Z,9.74
2023-04-30T03:29:14.525Z,9.78
2023-04-30T03:32:01.080Z,9.84
2023-04-30T03:34:47.668Z,9.84
2023-04-30T03:37:34.066Z,9.57
2023-04-30T03:40:20.310Z,9.82
2023-04-30T03:43:06.602Z,9.85
2023-04-30T03:45:53.593Z,9.66
2023-04-30T03:48:40.316Z,9.76
2023-04-30T03:51:28.378Z,9.83
2023-04-30T03:54:14.887Z,9.67
2023-04-30T03:57:04.344Z,9.75
2023-04-30T03:59:51.191Z,9.71
2023-04-30T04:02:37.842Z,9.82
2023-04-30T04:05:24.250Z,9.72
2023-04-30T04:08:10.804Z,9.66
2023-04-30T04:10:57.446Z,9.78
2023-04-30T04:13:43.704Z,9.43
2023-04-30T04:16:30.553Z,9.48
2023-04-30T04:19:17.003Z,9.61
2023-04-30T04:22:04.934Z,9.61
2023-04-30T04:24:51.545Z,9.59
2023-04-30T04:27:41.130Z,9.60
2023-04-30T04:30:27.868Z,9.49
2023-04-30T04:33:16.220Z,9.65
2023-04-30T04:36:04.220Z,9.42
2023-04-30T04:38:50.689Z,9.10
2023-04-30T04:41:37.127Z,9.58
2023-04-30T04:44:23.642Z,9.59
2023-04-30T04:47:10.290Z,9.54
2023-04-30T04:49:56.624Z,9.66
2023-04-30T04:52:43.280Z,9.57
2023-04-30T04:55:29.843Z,9.81
2023-04-30T04:58:16.940Z,9.98
2023-04-30T05:01:05.949Z,10.07
2023-04-30T05:03:53.770Z,10.08
2023-04-30T05:06:40.931Z,10.10
2023-04-30T05:09:27.499Z,10.10
2023-04-30T05:12:15.280Z,10.25
2023-04-30T05:15:01.817Z,10.29
2023-04-30T05:17:48.425Z,10.38
2023-04-30T05:20:34.677Z,10.31
2023-04-30T05:23:21.040Z,10.50
2023-04-30T05:26:08.736Z,10.32
2023-04-30T05:28:55.207Z,10.36
2023-04-30T05:31:41.999Z,10.53
2023-04-30T05:34:28.331Z,10.67
2023-04-30T05:37:17.693Z,10.63
2023-04-30T05:40:06.285Z,10.73
2023-04-30T05:42:52.761Z,10.61
2023-04-30T05:45:39.158Z,10.84
2023-04-30T05:48:26.509Z,11.19
2023-04-30T05:51:13.532Z,11.28
2023-04-30T05:54:00.380Z,11.16
2023-04-30T05:56:46.921Z,11.29
2023-04-30T05:59:33.218Z,11.48
2023-04-30T06:02:19.527Z,11.45
2023-04-30T06:05:08.053Z,11.74
2023-04-30T06:07:54.585Z,11.52
2023-04-30T06:10:41.097Z,11.50
2023-04-30T06:13:27.877Z,11.71
2023-04-30T06:16:15.436Z,11.88
2023-04-30T06:19:02.221Z,11.73
2023-04-30T06:21:48.454Z,11.85
2023-04-30T06:24:36.555Z,12.02
2023-04-30T06:27:23.457Z,12.13
2023-04-30T06:30:09.994Z,12.01
2023-04-30T06:32:56.797Z,11.89
2023-04-30T06:35:43.338Z,12.68
2023-04-30T06:38:29.534Z,12.36
2023-04-30T06:41:16.549Z,12.64
2023-04-30T06:44:03.070Z,12.81
2023-04-30T06:46:49.573Z,12.77
2023-04-30T06:49:35.809Z,12.69
2023-04-30T06:52:22.384Z,12.71
2023-04-30T06:55:09.397Z,12.78
2023-04-30T06:57:56.081Z,13.06
2023-04-30T07:00:42.926Z,13.58
2023-04-30T07:03:29.361Z,13.88
2023-04-30T07:06:16.241Z,14.20
2023-04-30T07:09:03.482Z,14.32
2023-04-30T07:11:51.235Z,14.23
2023-04-30T07:14:37.701Z,13.98
2023-04-30T07:17:26.746Z,14.25
2023-04-30T07:20:17.158Z,14.15
2023-04-30T07:23:03.407Z,14.13
2023-04-30T07:25:49.664Z,14.05
2023-04-30T07:28:36.466Z,13.38
2023-04-30T07:31:23.115Z,13.26
2023-04-30T07:34:09.742Z,13.11
2023-04-30T07:36:56.302Z,13.42
2023-04-30T07:39:42.893Z,13.70
2023-04-30T07:42:29.227Z,13.92
2023-04-30T07:45:19.858Z,14.11
2023-04-30T07:48:06.582Z,14.19
2023-04-30T07:50:53.507Z,14.01
2023-04-30T07:53:40.071Z,13.90
2023-04-30T07:56:26.361Z,14.07
2023-04-30T07:59:12.959Z,14.17
2023-04-30T08:02:00.281Z,14.18
2023-04-30T08:04:47.281Z,13.86
2023-04-30T08:07:33.730Z,14.25
2023-04-30T08:10:20.060Z,13.89
2023-04-30T08:13:06.610Z,14.20
2023-04-30T08:15:52.764Z,14.26
2023-04-30T08:18:44.445Z,14.11
2023-04-30T08:21:31.448Z,14.23
2023-04-30T08:24:17.783Z,14.20
2023-04-30T08:27:04.739Z,14.46
2023-04-30T08:29:50.973Z,14.51
2023-04-30T08:32:38.013Z,14.81
2023-04-30T08:35:27.002Z,14.96
2023-04-30T08:38:13.614Z,14.93
2023-04-30T08:41:08.310Z,15.09
2023-04-30T08:44:00.014Z,15.29
2023-04-30T08:46:46.397Z,15.46
2023-04-30T08:49:33.320Z,15.70
2023-04-30T08:52:19.735Z,15.84
2023-04-30T08:55:08.599Z,15.92
2023-04-30T08:57:54.972Z,16.24
2023-04-30T09:00:41.805Z,16.45
2023-04-30T09:03:28.731Z,16.00
2023-04-30T09:06:16.540Z,15.43
2023-04-30T09:09:13.828Z,15.27
2023-04-30T09:12:17.788Z,15.50
2023-04-30T09:15:06.455Z,15.79
2023-04-30T09:18:07.638Z,16.09
2023-04-30T09:21:05.684Z,16.07
2023-04-30T09:23:57.488Z,16.16
2023-04-30T09:26:44.339Z,16.04
2023-04-30T09:29:36.787Z,15.80
2023-04-30T09:32:23.442Z,16.32
2023-04-30T09:35:32.711Z,16.14
2023-04-30T09:38:32.813Z,16.21
2023-04-30T09:41:27.544Z,16.34
2023-04-30T09:44:37.270Z,16.48
2023-04-30T09:47:24.223Z,16.29
2023-04-30T09:50:13.649Z,16.13
2023-04-30T09:53:13.338Z,16.24
2023-04-30T09:56:03.036Z,16.18
2023-04-30T09:58:58.530Z,16.42
2023-04-30T10:01:44.789Z,16.70
2023-04-30T10:04:36.639Z,16.09
2023-04-30T10:07:26.433Z,16.80
2023-04-30T10:10:17.016Z,16.48
2023-04-30T10:13:07.953Z,16.34
2023-04-30T10:16:07.669Z,16.34
2023-04-30T10:18:57.075Z,16.37
2023-04-30T10:21:46.382Z,16.42
2023-04-30T10:24:34.714Z,15.95
2023-04-30T10:27:21.357Z,16.87
2023-04-30T10:30:10.719Z,17.02
2023-04-30T10:33:04.439Z,17.44
2023-04-30T10:36:02.009Z,16.55
2023-04-30T10:38:53.282Z,16.95
2023-04-30T10:41:40.524Z,16.96
2023-04-30T10:44:27.479Z,17.30
2023-04-30T10:47:16.681Z,17.03
2023-04-30T10:50:08.889Z,16.92
2023-04-30T10:53:07.144Z,17.44
2023-04-30T10:56:06.503Z,17.15
2023-04-30T10:58:53.363Z,17.00
2023-04-30T11:02:00.687Z,17.61
2023-04-30T11:05:07.571Z,17.98
2023-04-30T11:07:58.766Z,18.01
2023-04-30T11:11:00.594Z,18.11
2023-04-30T11:13:49.207Z,18.13
2023-04-30T11:16:35.829Z,17.95
2023-04-30T11:19:24.725Z,17.79
2023-04-30T11:22:11.532Z,17.87
2023-04-30T11:25:05.576Z,17.40
2023-04-30T11:27:52.800Z,17.17
2023-04-30T11:30:39.651Z,16.89
2023-04-30T11:33:28.698Z,17.08
2023-04-30T11:36:15.337Z,17.76
2023-04-30T11:39:05.945Z,17.97
2023-04-30T11:41:52.444Z,17.94
2023-04-30T11:44:38.826Z,18.23
2023-04-30T11:47:25.451Z,17.99
2023-04-30T11:50:21.269Z,18.22
2023-04-30T11:53:09.982Z,18.41
2023-04-30T11:55:56.896Z,18.51
2023-04-30T11:58:46.299Z,18.37
2023-04-30T12:01:32.671Z,18.19
2023-04-30T12:04:19.496Z,18.55
2023-04-30T12:07:08.808Z,18.01
2023-04-30T12:09:56.689Z,17.81
2023-04-30T12:12:44.762Z,17.68
2023-04-30T12:15:32.988Z,17.70
2023-04-30T12:18:19.156Z,17.51
2023-04-30T12:21:05.652Z,17.74
2023-04-30T12:23:53.379Z,17.65
2023-04-30T12:26:42.035Z,17.51
2023-04-30T12:29:29.210Z,17.59
2023-04-30T12:32:19.155Z,17.60
2023-04-30T12:35:06.425Z,17.69
2023-04-30T12:38:01.843Z,17.91
2023-04-30T12:40:51.281Z,18.08
2023-04-30T12:43:38.000Z,17.99
2023-04-30T12:46:28.128Z,18.32
2023-04-30T12:49:34.640Z,18.05
2023-04-30T12:52:25.399Z,17.49
2023-04-30T12:55:19.548Z,17.57
2023-04-30T12:58:11.457Z,17.74
2023-04-30T13:00:59.144Z,18.01
2023-04-30T13:03:45.937Z,17.78
2023-04-30T13:06:33.367Z,18.33
2023-04-30T13:09:19.944Z,18.30
2023-04-30T13:12:09.516Z,18.32
2023-04-30T13:14:57.308Z,18.48
2023-04-30T13:17:43.981Z,18.29
2023-04-30T13:20:30.519Z,18.11
2023-04-30T13:23:16.854Z,17.98
2023-04-30T13:26:03.340Z,18.15
2023-04-30T13:28:49.624Z,17.25
2023-04-30T13:31:36.403Z,17.85
2023-04-30T13:34:23.167Z,17.62
2023-04-30T13:37:09.666Z,17.78
2023-04-30T13:39:56.528Z,18.20
2023-04-30T13:42:43.178Z,18.43
2023-04-30T13:45:29.809Z,18.66
2023-04-30T13:48:16.140Z,18.82
2023-04-30T13:51:02.426Z,18.43
2023-04-30T13:53:49.007Z,18.40
2023-04-30T13:56:35.493Z,18.67
2023-04-30T13:59:21.910Z,18.28
2023-04-30T14:02:09.024Z,18.22
2023-04-30T14:05:05.399Z,18.46
2023-04-30T14:07:52.722Z,18.21
2023-04-30T14:10:39.050Z,18.13
2023-04-30T14:13:25.687Z,18.35
2023-04-30T14:16:12.423Z,18.73
2023-04-30T14:18:58.669Z,18.47
2023-04-30T14:21:45.397Z,18.15
2023-04-30T14:24:31.644Z,17.66
2023-04-30T14:27:17.969Z,17.60
2023-04-30T14:30:04.987Z,17.48
2023-04-30T14:32:51.542Z,17.53
2023-04-30T14:35:38.258Z,17.54
2023-04-30T14:38:24.557Z,17.83
2023-04-30T14:41:12.339Z,18.24
2023-04-30T14:43:58.689Z,18.02
2023-04-30T14:46:45.223Z,17.91
2023-04-30T14:49:32.139Z,17.65
2023-04-30T14:52:19.816Z,17.70
2023-04-30T14:55:06.746Z,18.14
2023-04-30T14:57:53.552Z,18.15
2023-04-30T15:00:39.819Z,18.04
2023-04-30T15:03:26.169Z,18.06
2023-04-30T15:06:13.725Z,18.15
2023-04-30T15:09:01.172Z,18.11
2023-04-30T15:11:48.358Z,18.37
2023-04-30T15:14:34.652Z,18.47
2023-04-30T15:17:21.725Z,18.66
2023-04-30T15:20:08.668Z,18.65
2023-04-30T15:22:55.402Z,18.68
2023-04-30T15:25:44.057Z,18.38
2023-04-30T15:28:32.709Z,18.13
2023-04-30T15:31:18.906Z,18.01
2023-04-30T15:34:05.968Z,17.82
2023-04-30T15:36:52.093Z,17.51
2023-04-30T15:39:38.774Z,17.77
2023-04-30T15:42:24.950Z,17.55
2023-04-30T15:45:11.654Z,17.39
2023-04-30T15:47:58.097Z,17.34
2023-04-30T15:50:44.699Z,17.45
2023-04-30T15:53:31.428Z,17.59
2023-04-30T15:56:19.568Z,17.70
2023-04-30T15:59:06.311Z,17.67
2023-04-30T16:01:53.784Z,17.81
2023-04-30T16:04:41.393Z,17.90
2023-04-30T16:07:28.055Z,17.88
2023-04-30T16:10:14.727Z,17.84
2023-04-30T16:13:01.092Z,17.68
2023-04-30T16:15:47.558Z,17.68
2023-04-30T16:18:34.200Z,17.69
2023-04-30T16:21:21.416Z,17.33
2023-04-30T16:24:09.252Z,16.95
2023-04-30T16:26:56.223Z,17.55
2023-04-30T16:29:42.837Z,17.50
2023-04-30T16:32:29.844Z,17.46
2023-04-30T16:35:16.220Z,17.39
2023-04-30T16:38:02.581Z,17.45
2023-04-30T16:40:49.246Z,17.37
2023-04-30T16:43:35.676Z,17.42
2023-04-30T16:46:22.109Z,17.23
2023-04-30T16:49:09.029Z,17.02
2023-04-30T16:51:55.633Z,17.00
2023-04-30T16:54:41.909Z,16.95
2023-04-30T16:57:28.246Z,17.02
2023-04-30T17:00:16.698Z,16.86
2023-04-30T17:03:04.696Z,16.53
2023-04-30T17:05:52.675Z,16.65
2023-04-30T17:08:40.413Z,16.68
2023-04-30T17:11:27.010Z,16.71
2023-04-30T17:14:13.470Z,16.55
2023-04-30T17:17:00.052Z,16.37
2023-04-30T17:19:46.561Z,16.41
2023-04-30T17:22:33.186Z,16.13
2023-04-30T17:25:19.546Z,16.12
2023-04-30T17:28:05.828Z,16.05
2023-04-30T17:30:52.484Z,15.76
2023-04-30T17:33:39.939Z,15.92
2023-04-30T17:36:30.324Z,15.68
2023-04-30T17:39:18.572Z,15.55
2023-04-30T17:42:05.513Z,15.46
2023-04-30T17:44:52.950Z,15.33
2023-04-30T17:47:39.591Z,15.24
2023-04-30T17:50:26.345Z,15.21
2023-04-30T17:53:12.646Z,14.90
2023-04-30T17:56:00.565Z,14.73
2023-04-30T17:58:47.633Z,14.84
2023-04-30T18:01:34.437Z,14.44
2023-04-30T18:04:20.809Z,14.53
2023-04-30T18:07:08.229Z,14.39
2023-04-30T18:09:54.949Z,13.48
2023-04-30T18:12:41.919Z,14.05
2023-04-30T18:15:29.219Z,13.74
2023-04-30T18:18:16.306Z,13.65
2023-04-30T18:21:03.714Z,13.61
2023-04-30T18:23:50.609Z,13.27
2023-04-30T18:26:37.498Z,13.20
2023-04-30T18:29:23.755Z,13.00
2023-04-30T18:32:10.112Z,12.87
2023-04-30T18:34:56.856Z,12.80
2023-04-30T18:37:43.003Z,12.49
2023-04-30T18:40:29.689Z,12.36
2023-04-30T18:43:16.851Z,12.36
2023-04-30T18:46:05.286Z,12.20
2023-04-30T18:48:51.778Z,12.10
2023-04-30T18:51:38.187Z,11.78
2023-04-30T18:54:24.388Z,11.87
2023-04-30T18:57:16.186Z,11.63
2023-04-30T19:00:02.556Z,11.66
2023-04-30T19:02:49.299Z,11.53
2023-04-30T19:05:36.429Z,11.48
2023-04-30T19:08:23.123Z,11.43
2023-04-30T19:11:09.592Z,11.35
2023-04-30T19:13:56.277Z,10.67
2023-04-30T19:16:42.668Z,11.21
2023-04-30T19:19:29.602Z,11.02
2023-04-30T19:22:16.198Z,10.90
2023-04-30T19:25:02.665Z,10.94
2023-04-30T19:27:48.949Z,10.93
2023-04-30T19:30:35.680Z,10.80
2023-04-30T19:33:22.856Z,10.57
2023-04-30T19:36:09.674Z,10.47
2023-04-30T19:38:56.393Z,10.63
2023-04-30T19:41:42.976Z,10.45
2023-04-30T19:44:29.825Z,10.46
2023-04-30T19:47:16.341Z,10.46
2023-04-30T19:50:02.842Z,10.23
2023-04-30T19:52:49.073Z,10.22
2023-04-30T19:55:35.617Z,10.24
2023-04-30T19:58:22.044Z,10.11
2023-04-30T20:01:10.730Z,9.93
2023-04-30T20:03:57.316Z,9.98
2023-04-30T20:06:44.703Z,9.93
2023-04-30T20:09:31.526Z,9.83
2023-04-30T20:12:17.996Z,9.77
2023-04-30T20:15:04.842Z,9.64
2023-04-30T20:17:52.800Z,9.71
2023-04-30T20:20:39.229Z,9.70
2023-04-30T20:23:25.725Z,9.35
2023-04-30T20:26:11.986Z,9.41
2023-04-30T20:28:58.409Z,9.38
2023-04-30T20:31:44.928Z,9.15
2023-04-30T20:34:32.392Z,9.41
2023-04-30T20:37:19.046Z,9.39
2023-04-30T20:40:07.802Z,9.32
2023-04-30T20:42:54.824Z,9.22
2023-04-30T20:45:44.079Z,8.97
2023-04-30T20:48:30.894Z,9.03
2023-04-30T20:51:17.435Z,9.06
2023-04-30T20:54:04.392Z,9.07
2023-04-30T20:56:51.462Z,8.92
2023-04-30T20:59:38.340Z,8.52
2023-04-30T21:02:24.935Z,8.82
2023-04-30T21:05:11.686Z,8.67
2023-04-30T21:08:01.191Z,8.73
2023-04-30T21:10:47.993Z,8.51
2023-04-30T21:13:34.318Z,8.33
2023-04-30T21:16:20.785Z,8.44
2023-04-30T21:19:07.139Z,8.39
2023-04-30T21:21:53.365Z,8.37
2023-04-30T21:24:39.978Z,8.07
2023-04-30T21:27:26.280Z,8.38
2023-04-30T21:30:15.175Z,8.05
2023-04-30T21:33:01.394Z,8.38
2023-04-30T21:35:47.666Z,8.01
2023-04-30T21:38:37.818Z,8.21
2023-04-30T21:41:28.107Z,7.70
2023-04-30T21:44:15.035Z,7.97
2023-04-30T21:47:02.160Z,8.07
2023-04-30T21:49:48.372Z,7.97
2023-04-30T21:52:34.799Z,6.88
2023-04-30T21:55:21.156Z,7.91
2023-04-30T21:58:07.473Z,7.83
2023-04-30T22:00:54.787Z,7.72
2023-04-30T22:03:44.511Z,7.95
2023-04-30T22:06:31.277Z,7.54
2023-04-30T22:09:18.027Z,7.66
2023-04-30T22:12:06.750Z,7.59
2023-04-30T22:14:54.423Z,7.54
2023-04-30T22:17:41.647Z,7.54
2023-04-30T22:20:28.251Z,7.30
2023-04-30T22:23:14.591Z,7.28
2023-04-30T22:26:01.655Z,7.31
2023-04-30T22:28:47.873Z,7.26
2023-04-30T22:31:34.136Z,7.15
2023-04-30T22:34:23.188Z,7.53
2023-04-30T22:37:12.429Z,7.20
2023-04-30T22:39:59.222Z,7.23
2023-04-30T22:42:46.406Z,7.23
2023-04-30T22:45:37.052Z,7.33
2023-04-30T22:48:23.611Z,7.32
2023-04-30T22:51:09.938Z,7.06
2023-04-30T22:53:56.703Z,7.02
2023-04-30T22:56:43.274Z,6.92
2023-04-30T22:59:29.625Z,6.97
2023-04-30T23:02:16.099Z,7.10
2023-04-30T23:05:03.244Z,7.02
2023-04-30T23:07:49.649Z,6.92
2023-04-30T23:10:35.915Z,6.73
2023-04-30T23:13:22.930Z,6.82
2023-04-30T23:16:10.325Z,6.90
2023-04-30T23:18:58.218Z,6.83
2023-04-30T23:21:44.822Z,6.80
2023-04-30T23:24:35.190Z,6.76
2023-04-30T23:27:21.810Z,6.80
2023-04-30T23:30:09.521Z,6.58
2023-04-30T23:32:55.955Z,6.57
2023-04-30T23:35:45.915Z,6.72
2023-04-30T23:38:32.546Z,6.82
2023-04-30T23:41:18.860Z,6.69
2023-04-30T23:44:05.098Z,6.74
2023-04-30T23:46:52.140Z,6.26
2023-04-30T23:49:38.683Z,6.66
2023-04-30T23:52:25.109Z,6.87
2023-04-30T23:55:11.629Z,6.74
2023-04-30T23:57:57.974Z,6.65
